createdAt,value
2023-04-30T00:00:56.031Z,7.99
2023-04-30T00:01:56.099Z,7.87
2023-04-30T00:02:56.184Z,7.88
2023-04-30T00:03:56.182Z,7.81
2023-04-30T00:04:56.081Z,7.77
2023-04-30T00:05:56.121Z,7.85
2023-04-30T00:06:56.105Z,7.84
2023-04-30T00:07:56.120Z,7.88
2023-04-30T00:08:56.132Z,7.80
2023-04-30T00:09:56.308Z,7.75
2023-04-30T00:10:56.160Z,7.81
2023-04-30T00:11:56.169Z,7.66
2023-04-30T00:12:56.183Z,7.78
2023-04-30T00:13:56.193Z,7.75
2023-04-30T00:14:56.228Z,7.74
2023-04-30T00:15:56.253Z,7.62
2023-04-30T00:16:56.234Z,7.67
2023-04-30T00:17:56.406Z,7.66
2023-04-30T00:18:56.253Z,7.55
2023-04-30T00:19:56.495Z,7.66
2023-04-30T00:20:56.283Z,7.46
2023-04-30T00:21:56.316Z,7.59
2023-04-30T00:22:56.308Z,7.53
2023-04-30T00:23:56.320Z,7.53
2023-04-30T00:24:56.329Z,7.50
2023-04-30T00:25:56.352Z,7.53
2023-04-30T00:26:56.375Z,7.47
2023-04-30T00:27:56.368Z,7.43
2023-04-30T00:28:56.389Z,7.41
2023-04-30T00:29:56.553Z,7.37
2023-04-30T00:30:56.408Z,7.36
2023-04-30T00:31:56.464Z,7.32
2023-04-30T00:32:56.445Z,7.39
2023-04-30T00:33:56.441Z,7.25
2023-04-30T00:34:56.452Z,7.26
2023-04-30T00:35:56.487Z,7.28
2023-04-30T00:36:56.479Z,7.28
2023-04-30T00:37:56.491Z,7.19
2023-04-30T00:38:56.500Z,7.13
2023-04-30T00:39:56.795Z,7.18
2023-04-30T00:40:56.523Z,7.22
2023-04-30T00:41:56.536Z,7.07
2023-04-30T00:42:56.550Z,7.07
2023-04-30T00:43:56.565Z,7.10
2023-04-30T00:44:56.571Z,7.13
2023-04-30T00:45:56.605Z,7.07
2023-04-30T00:46:56.598Z,7.07
2023-04-30T00:47:56.651Z,7.01
2023-04-30T00:48:56.629Z,7.05
2023-04-30T00:49:56.954Z,6.93
2023-04-30T00:50:56.644Z,6.93
2023-04-30T00:51:56.662Z,6.95
2023-04-30T00:52:56.671Z,6.89
2023-04-30T00:53:56.683Z,6.82
2023-04-30T00:54:56.693Z,6.89
2023-04-30T00:55:56.711Z,6.86
2023-04-30T00:56:56.725Z,6.86
2023-04-30T00:57:56.727Z,6.82
2023-04-30T00:58:56.741Z,6.80
2023-04-30T00:59:56.825Z,6.78
2023-04-30T01:00:56.796Z,6.83
2023-04-30T01:01:56.779Z,6.74
2023-04-30T01:02:56.835Z,6.78
2023-04-30T01:03:56.805Z,6.83
2023-04-30T01:04:56.822Z,6.74
2023-04-30T01:05:56.912Z,6.78
2023-04-30T01:06:56.838Z,6.74
2023-04-30T01:07:56.848Z,6.72
2023-04-30T01:08:56.859Z,6.68
2023-04-30T01:09:56.966Z,6.75
2023-04-30T01:10:56.893Z,6.62
2023-04-30T01:11:56.896Z,6.68
2023-04-30T01:12:56.906Z,6.68
2023-04-30T01:13:56.920Z,6.70
2023-04-30T01:14:56.950Z,6.70
2023-04-30T01:15:56.999Z,6.67
2023-04-30T01:16:56.964Z,6.64
2023-04-30T01:17:57.069Z,6.67
2023-04-30T01:18:57.107Z,6.67
2023-04-30T01:19:56.994Z,6.59
2023-04-30T01:20:56.999Z,6.56
2023-04-30T01:21:57.006Z,6.60
2023-04-30T01:22:57.046Z,6.57
2023-04-30T01:23:57.038Z,6.62
2023-04-30T01:24:57.066Z,6.53
2023-04-30T01:25:57.062Z,6.49
2023-04-30T01:26:57.075Z,6.54
2023-04-30T01:27:57.080Z,6.57
2023-04-30T01:28:57.094Z,6.60
2023-04-30T01:29:57.116Z,6.52
2023-04-30T01:30:57.153Z,6.52
2023-04-30T01:31:57.130Z,6.54
2023-04-30T01:32:57.157Z,6.50
2023-04-30T01:33:57.178Z,6.49
2023-04-30T01:34:57.163Z,6.52
2023-04-30T01:35:57.180Z,6.54
2023-04-30T01:36:57.184Z,6.50
2023-04-30T01:37:57.203Z,6.47
2023-04-30T01:38:57.208Z,6.49
2023-04-30T01:39:57.513Z,6.50
2023-04-30T01:40:57.235Z,6.47
2023-04-30T01:41:57.245Z,6.47
2023-04-30T01:42:57.257Z,6.49
2023-04-30T01:43:57.276Z,6.41
2023-04-30T01:44:57.285Z,6.46
2023-04-30T01:45:57.347Z,6.34
2023-04-30T01:46:57.302Z,6.43
2023-04-30T01:47:57.360Z,6.31
2023-04-30T01:48:57.326Z,6.26
2023-04-30T01:49:57.336Z,6.35
2023-04-30T01:50:57.346Z,6.31
2023-04-30T01:51:57.371Z,6.32
2023-04-30T01:52:57.376Z,6.28
2023-04-30T01:53:57.386Z,6.29
2023-04-30T01:54:57.399Z,6.17
2023-04-30T01:55:57.427Z,6.10
2023-04-30T01:56:57.422Z,6.16
2023-04-30T01:57:57.446Z,6.16
2023-04-30T01:58:57.446Z,6.19
2023-04-30T01:59:57.459Z,6.15
2023-04-30T02:00:57.470Z,6.16
2023-04-30T02:01:57.562Z,6.07
2023-04-30T02:02:57.558Z,6.05
2023-04-30T02:03:57.590Z,6.02
2023-04-30T02:04:57.516Z,5.99
2023-04-30T02:05:57.573Z,5.99
2023-04-30T02:06:57.538Z,6.02
2023-04-30T02:07:57.550Z,5.91
2023-04-30T02:08:57.559Z,5.98
2023-04-30T02:09:57.569Z,5.97
2023-04-30T02:10:57.592Z,5.95
2023-04-30T02:11:57.596Z,5.95
2023-04-30T02:12:57.611Z,5.92
2023-04-30T02:13:57.622Z,5.90
2023-04-30T02:14:57.622Z,5.84
2023-04-30T02:15:57.647Z,5.88
2023-04-30T02:16:57.646Z,5.81
2023-04-30T02:17:57.678Z,5.76
2023-04-30T02:18:57.667Z,5.76
2023-04-30T02:19:57.684Z,5.76
2023-04-30T02:20:57.696Z,5.79
2023-04-30T02:21:57.713Z,5.74
2023-04-30T02:22:57.720Z,5.72
2023-04-30T02:23:57.726Z,5.62
2023-04-30T02:24:57.738Z,5.67
2023-04-30T02:25:57.746Z,5.58
2023-04-30T02:26:57.762Z,5.58
2023-04-30T02:27:57.779Z,5.58
2023-04-30T02:28:57.779Z,5.49
2023-04-30T02:29:57.796Z,5.52
2023-04-30T02:30:57.822Z,5.54
2023-04-30T02:31:57.937Z,5.56
2023-04-30T02:32:57.865Z,5.47
2023-04-30T02:33:57.839Z,5.47
2023-04-30T02:34:57.847Z,5.41
2023-04-30T02:35:57.861Z,5.44
2023-04-30T02:36:57.866Z,5.44
2023-04-30T02:37:57.887Z,5.38
2023-04-30T02:38:57.889Z,5.36
2023-04-30T02:39:58.075Z,5.36
2023-04-30T02:40:57.913Z,5.38
2023-04-30T02:41:57.922Z,5.33
2023-04-30T02:42:57.933Z,5.26
2023-04-30T02:43:57.943Z,5.26
2023-04-30T02:44:57.971Z,5.20
2023-04-30T02:45:58.009Z,5.16
2023-04-30T02:46:57.997Z,5.18
2023-04-30T02:47:58.045Z,5.16
2023-04-30T02:48:58.000Z,5.13
2023-04-30T02:49:58.019Z,5.18
2023-04-30T02:50:58.023Z,5.07
2023-04-30T02:51:58.070Z,5.12
2023-04-30T02:52:58.047Z,5.01
2023-04-30T02:53:58.055Z,4.97
2023-04-30T02:54:58.066Z,5.00
2023-04-30T02:55:58.076Z,5.01
2023-04-30T02:56:58.082Z,5.02
2023-04-30T02:57:58.097Z,4.95
2023-04-30T02:58:58.109Z,4.90
2023-04-30T02:59:58.116Z,4.94
2023-04-30T03:00:58.183Z,4.97
2023-04-30T03:01:58.145Z,4.92
2023-04-30T03:02:58.210Z,4.84
2023-04-30T03:03:58.163Z,4.90
2023-04-30T03:04:58.175Z,4.87
2023-04-30T03:05:58.209Z,4.79
2023-04-30T03:06:58.192Z,4.70
2023-04-30T03:07:58.200Z,4.74
2023-04-30T03:08:58.219Z,4.76
2023-04-30T03:09:58.227Z,4.74
2023-04-30T03:10:58.240Z,4.74
2023-04-30T03:11:58.252Z,4.63
2023-04-30T03:12:58.255Z,4.60
2023-04-30T03:13:58.269Z,4.61
2023-04-30T03:14:58.284Z,4.60
2023-04-30T03:15:58.330Z,4.56
2023-04-30T03:16:58.300Z,4.56
2023-04-30T03:17:58.394Z,4.45
2023-04-30T03:18:58.332Z,4.48
2023-04-30T03:19:58.424Z,4.48
2023-04-30T03:20:58.341Z,4.46
2023-04-30T03:21:58.353Z,4.49
2023-04-30T03:22:58.362Z,4.45
2023-04-30T03:23:58.376Z,4.46
2023-04-30T03:24:58.388Z,4.39
2023-04-30T03:25:58.399Z,4.45
2023-04-30T03:26:58.408Z,4.30
2023-04-30T03:27:58.419Z,4.34
2023-04-30T03:28:58.435Z,4.39
2023-04-30T03:29:58.443Z,4.32
2023-04-30T03:30:58.450Z,4.36
2023-04-30T03:31:58.526Z,4.25
2023-04-30T03:32:58.499Z,4.27
2023-04-30T03:33:58.575Z,4.24
2023-04-30T03:34:58.496Z,4.22
2023-04-30T03:35:58.500Z,4.20
2023-04-30T03:36:58.525Z,4.21
2023-04-30T03:37:58.526Z,4.27
2023-04-30T03:38:58.540Z,4.13
2023-04-30T03:39:58.545Z,4.12
2023-04-30T03:40:58.557Z,4.24
2023-04-30T03:41:58.571Z,4.09
2023-04-30T03:42:58.582Z,4.03
2023-04-30T03:43:58.597Z,4.07
2023-04-30T03:44:58.600Z,4.03
2023-04-30T03:45:58.644Z,4.06
2023-04-30T03:46:58.621Z,4.09
2023-04-30T03:47:58.667Z,4.10
2023-04-30T03:48:58.638Z,4.07
2023-04-30T03:49:58.652Z,4.07
2023-04-30T03:50:58.664Z,4.03
2023-04-30T03:51:58.669Z,4.03
2023-04-30T03:52:58.680Z,4.03
2023-04-30T03:53:58.695Z,3.95
2023-04-30T03:54:58.704Z,3.92
2023-04-30T03:55:58.713Z,4.02
2023-04-30T03:56:58.723Z,4.02
2023-04-30T03:57:58.740Z,3.95
2023-04-30T03:58:58.742Z,3.94
2023-04-30T03:59:58.757Z,3.89
2023-04-30T04:00:58.770Z,3.91
2023-04-30T04:01:58.844Z,3.94
2023-04-30T04:02:58.829Z,3.94
2023-04-30T04:03:58.863Z,3.89
2023-04-30T04:04:58.805Z,3.92
2023-04-30T04:05:58.835Z,3.89
2023-04-30T04:06:58.825Z,3.92
2023-04-30T04:07:58.837Z,3.89
2023-04-30T04:08:58.847Z,3.95
2023-04-30T04:09:58.863Z,3.94
2023-04-30T04:10:58.867Z,3.89
2023-04-30T04:11:58.885Z,3.91
2023-04-30T04:12:58.891Z,3.86
2023-04-30T04:13:58.902Z,3.91
2023-04-30T04:14:58.911Z,3.89
2023-04-30T04:15:58.976Z,3.89
2023-04-30T04:16:58.929Z,3.91
2023-04-30T04:17:58.992Z,3.92
2023-04-30T04:18:58.951Z,3.86
2023-04-30T04:19:58.960Z,3.92
2023-04-30T04:20:58.972Z,3.92
2023-04-30T04:21:58.980Z,3.94
2023-04-30T04:22:58.991Z,3.95
2023-04-30T04:23:59.001Z,3.88
2023-04-30T04:24:59.022Z,3.86
2023-04-30T04:25:59.028Z,3.89
2023-04-30T04:26:59.031Z,3.89
2023-04-30T04:27:59.043Z,3.94
2023-04-30T04:28:59.048Z,4.03
2023-04-30T04:29:59.058Z,3.95
2023-04-30T04:30:59.072Z,3.95
2023-04-30T04:31:59.186Z,3.99
2023-04-30T04:32:59.118Z,4.00
2023-04-30T04:33:59.101Z,3.96
2023-04-30T04:34:59.110Z,4.02
2023-04-30T04:35:59.119Z,4.06
2023-04-30T04:36:59.141Z,3.99
2023-04-30T04:37:59.141Z,4.09
2023-04-30T04:38:59.148Z,4.06
2023-04-30T04:39:59.158Z,4.06
2023-04-30T04:40:59.165Z,4.00
2023-04-30T04:41:59.185Z,4.06
2023-04-30T04:42:59.191Z,4.04
2023-04-30T04:43:59.208Z,4.06
2023-04-30T04:44:59.208Z,4.06
2023-04-30T04:45:59.277Z,4.22
2023-04-30T04:46:59.238Z,4.21
2023-04-30T04:47:59.274Z,4.13
2023-04-30T04:48:59.254Z,4.21
2023-04-30T04:49:59.265Z,4.27
2023-04-30T04:50:59.273Z,4.21
2023-04-30T04:51:59.280Z,4.21
2023-04-30T04:52:59.302Z,4.28
2023-04-30T04:53:59.303Z,4.21
2023-04-30T04:54:59.310Z,4.30
2023-04-30T04:55:59.321Z,4.31
2023-04-30T04:56:59.332Z,4.20
2023-04-30T04:57:59.341Z,4.34
2023-04-30T04:58:59.349Z,4.31
2023-04-30T04:59:59.366Z,4.31
2023-04-30T05:00:59.379Z,4.32
2023-04-30T05:01:59.393Z,4.34
2023-04-30T05:02:59.448Z,4.40
2023-04-30T05:03:59.558Z,4.40
2023-04-30T05:04:59.415Z,4.45
2023-04-30T05:05:59.503Z,4.46
2023-04-30T05:06:59.437Z,4.50
2023-04-30T05:07:59.444Z,4.53
2023-04-30T05:08:59.452Z,4.48
2023-04-30T05:09:59.467Z,4.57
2023-04-30T05:10:59.476Z,4.60
2023-04-30T05:11:59.487Z,4.63
2023-04-30T05:12:59.498Z,4.64
2023-04-30T05:13:59.511Z,4.58
2023-04-30T05:14:59.517Z,4.74
2023-04-30T05:15:59.548Z,4.76
2023-04-30T05:16:59.541Z,4.78
2023-04-30T05:17:59.608Z,4.76
2023-04-30T05:18:59.559Z,4.67
2023-04-30T05:19:59.570Z,4.68
2023-04-30T05:20:59.585Z,4.83
2023-04-30T05:21:59.594Z,4.90
2023-04-30T05:22:59.627Z,4.89
2023-04-30T05:23:59.625Z,4.86
2023-04-30T05:24:59.625Z,4.98
2023-04-30T05:25:59.637Z,4.97
2023-04-30T05:26:59.648Z,4.95
2023-04-30T05:27:59.667Z,4.89
2023-04-30T05:28:59.682Z,4.98
2023-04-30T05:29:59.679Z,4.98
2023-04-30T05:30:59.686Z,5.00
2023-04-30T05:31:59.703Z,5.04
2023-04-30T05:32:59.738Z,4.97
2023-04-30T05:33:59.720Z,4.97
2023-04-30T05:34:59.727Z,5.08
2023-04-30T05:35:59.740Z,5.05
2023-04-30T05:36:59.748Z,5.12
2023-04-30T05:37:59.765Z,5.16
2023-04-30T05:38:59.773Z,5.22
2023-04-30T05:39:59.794Z,5.25
2023-04-30T05:40:59.793Z,5.26
2023-04-30T05:41:59.805Z,5.23
2023-04-30T05:42:59.818Z,5.26
2023-04-30T05:43:59.826Z,5.36
2023-04-30T05:44:59.837Z,5.33
2023-04-30T05:45:59.862Z,5.37
2023-04-30T05:46:59.856Z,5.34
2023-04-30T05:47:59.918Z,5.44
2023-04-30T05:48:59.879Z,5.51
2023-04-30T05:49:59.887Z,5.49
2023-04-30T05:50:59.903Z,5.58
2023-04-30T05:51:59.926Z,5.58
2023-04-30T05:52:59.922Z,5.55
2023-04-30T05:53:59.952Z,5.61
2023-04-30T05:54:59.951Z,5.64
2023-04-30T05:55:59.954Z,5.73
2023-04-30T05:56:59.971Z,5.74
2023-04-30T05:57:59.987Z,5.87
2023-04-30T05:58:59.999Z,5.84
2023-04-30T06:00:00.004Z,5.97
2023-04-30T06:01:00.017Z,5.97
2023-04-30T06:02:00.111Z,5.94
2023-04-30T06:03:00.105Z,5.98
2023-04-30T06:04:00.050Z,6.06
2023-04-30T06:05:00.117Z,6.01
2023-04-30T06:06:00.189Z,5.98
2023-04-30T06:07:00.088Z,6.07
2023-04-30T06:08:00.120Z,6.17
2023-04-30T06:09:00.130Z,6.16
2023-04-30T06:10:00.210Z,6.13
2023-04-30T06:11:00.131Z,6.22
2023-04-30T06:12:00.144Z,6.28
2023-04-30T06:13:00.153Z,6.29
2023-04-30T06:14:00.167Z,6.34
2023-04-30T06:15:00.176Z,6.39
2023-04-30T06:16:00.216Z,6.47
2023-04-30T06:17:00.258Z,6.50
2023-04-30T06:18:00.299Z,6.46
2023-04-30T06:19:00.226Z,6.65
2023-04-30T06:20:00.249Z,6.57
2023-04-30T06:21:00.248Z,6.72
2023-04-30T06:22:00.263Z,6.87
2023-04-30T06:23:00.283Z,6.97
2023-04-30T06:24:00.284Z,7.23
2023-04-30T06:25:00.300Z,7.47
2023-04-30T06:26:00.319Z,7.55
2023-04-30T06:27:00.328Z,7.78
2023-04-30T06:28:00.348Z,8.09
2023-04-30T06:29:00.352Z,8.32
2023-04-30T06:30:00.365Z,8.54
2023-04-30T06:31:00.408Z,8.71
2023-04-30T06:32:00.390Z,8.86
2023-04-30T06:33:00.413Z,9.09
2023-04-30T06:34:00.433Z,9.30
2023-04-30T06:35:00.432Z,9.52
2023-04-30T06:36:00.447Z,9.81
2023-04-30T06:37:00.457Z,9.97
2023-04-30T06:38:00.478Z,10.27
2023-04-30T06:39:00.494Z,10.41
2023-04-30T06:40:00.527Z,10.48
2023-04-30T06:41:00.531Z,10.75
2023-04-30T06:42:00.542Z,10.90
2023-04-30T06:43:00.556Z,11.07
2023-04-30T06:44:00.568Z,11.35
2023-04-30T06:45:00.614Z,11.43
2023-04-30T06:46:00.649Z,11.63
2023-04-30T06:47:00.619Z,11.77
2023-04-30T06:48:00.734Z,11.99
2023-04-30T06:49:00.652Z,12.07
2023-04-30T06:50:00.710Z,12.14
2023-04-30T06:51:00.689Z,12.26
2023-04-30T06:52:00.702Z,12.25
2023-04-30T06:53:00.721Z,12.32
2023-04-30T06:54:00.754Z,12.47
2023-04-30T06:55:00.757Z,12.54
2023-04-30T06:56:00.781Z,12.63
2023-04-30T06:57:00.792Z,12.76
2023-04-30T06:58:00.829Z,12.53
2023-04-30T06:59:00.829Z,12.63
2023-04-30T07:00:00.854Z,12.72
2023-04-30T07:01:00.992Z,12.69
2023-04-30T07:02:01.203Z,12.75
2023-04-30T07:03:00.980Z,12.83
2023-04-30T07:04:00.941Z,12.88
2023-04-30T07:05:00.937Z,13.03
2023-04-30T07:06:00.991Z,12.98
2023-04-30T07:07:00.975Z,13.21
2023-04-30T07:08:00.989Z,13.24
2023-04-30T07:09:01.039Z,13.40
2023-04-30T07:10:01.028Z,13.55
2023-04-30T07:11:01.045Z,13.68
2023-04-30T07:12:01.086Z,13.73
2023-04-30T07:13:01.090Z,13.94
2023-04-30T07:14:01.141Z,13.91
2023-04-30T07:15:01.120Z,14.03
2023-04-30T07:16:01.215Z,14.12
2023-04-30T07:17:01.161Z,14.11
2023-04-30T07:18:01.199Z,14.07
2023-04-30T07:19:01.197Z,14.05
2023-04-30T07:20:01.217Z,13.95
2023-04-30T07:21:01.243Z,13.86
2023-04-30T07:22:01.267Z,13.95
2023-04-30T07:23:01.282Z,13.98
2023-04-30T07:24:01.300Z,14.07
2023-04-30T07:25:01.319Z,14.15
2023-04-30T07:26:01.339Z,14.31
2023-04-30T07:27:01.355Z,14.36
2023-04-30T07:28:01.377Z,14.43
2023-04-30T07:29:01.398Z,14.53
2023-04-30T07:30:01.430Z,14.61
2023-04-30T07:31:01.455Z,14.55
2023-04-30T07:32:01.501Z,14.51
2023-04-30T07:33:01.505Z,14.40
2023-04-30T07:34:01.500Z,14.43
2023-04-30T07:35:01.534Z,14.43
2023-04-30T07:36:01.551Z,14.45
2023-04-30T07:37:01.558Z,14.48
2023-04-30T07:38:01.592Z,14.40
2023-04-30T07:39:01.598Z,14.59
2023-04-30T07:40:01.618Z,14.53
2023-04-30T07:41:01.643Z,14.66
2023-04-30T07:42:01.664Z,14.59
2023-04-30T07:43:01.678Z,14.55
2023-04-30T07:44:01.710Z,14.59
2023-04-30T07:45:01.723Z,14.40
2023-04-30T07:46:01.778Z,14.22
2023-04-30T07:47:01.764Z,14.07
2023-04-30T07:48:01.884Z,14.00
2023-04-30T07:49:01.801Z,13.91
2023-04-30T07:50:01.834Z,13.79
2023-04-30T07:51:01.847Z,13.82
2023-04-30T07:52:01.875Z,13.83
2023-04-30T07:53:01.886Z,13.97
2023-04-30T07:54:01.906Z,13.91
2023-04-30T07:55:01.957Z,13.97
2023-04-30T07:56:01.948Z,13.91
2023-04-30T07:57:01.969Z,13.98
2023-04-30T07:58:01.985Z,13.97
2023-04-30T07:59:02.023Z,13.87
2023-04-30T08:00:02.029Z,13.86
2023-04-30T08:01:02.051Z,13.87
2023-04-30T08:02:02.133Z,13.91
2023-04-30T08:03:02.197Z,13.97
2023-04-30T08:04:02.203Z,13.94
2023-04-30T08:05:02.160Z,14.01
2023-04-30T08:06:02.242Z,13.94
2023-04-30T08:07:02.187Z,14.00
2023-04-30T08:08:02.212Z,13.95
2023-04-30T08:09:02.222Z,13.95
2023-04-30T08:10:02.244Z,13.70
2023-04-30T08:11:02.262Z,13.55
2023-04-30T08:12:02.285Z,13.37
2023-04-30T08:13:02.303Z,13.24
2023-04-30T08:14:02.325Z,13.11
2023-04-30T08:15:02.345Z,12.98
2023-04-30T08:16:02.383Z,12.86
2023-04-30T08:17:02.530Z,12.75
2023-04-30T08:18:02.421Z,12.66
2023-04-30T08:19:02.425Z,12.55
2023-04-30T08:20:02.441Z,12.45
2023-04-30T08:21:02.464Z,12.29
2023-04-30T08:22:02.484Z,12.11
2023-04-30T08:23:02.515Z,11.99
2023-04-30T08:24:02.517Z,11.86
2023-04-30T08:25:02.545Z,11.86
2023-04-30T08:26:02.551Z,11.55
2023-04-30T08:27:02.567Z,11.60
2023-04-30T08:28:02.590Z,11.51
2023-04-30T08:29:02.605Z,11.35
2023-04-30T08:30:02.622Z,11.27
2023-04-30T08:31:02.639Z,11.15
2023-04-30T08:32:02.702Z,11.18
2023-04-30T08:33:02.709Z,11.12
2023-04-30T08:34:02.684Z,11.05
2023-04-30T08:35:02.704Z,11.01
2023-04-30T08:36:02.732Z,10.83
2023-04-30T08:37:02.745Z,10.82
2023-04-30T08:38:02.750Z,10.80
2023-04-30T08:39:02.765Z,10.89
2023-04-30T08:40:02.791Z,10.83
2023-04-30T08:41:02.810Z,10.77
2023-04-30T08:42:02.818Z,10.72
2023-04-30T08:43:02.826Z,10.82
2023-04-30T08:44:02.846Z,10.76
2023-04-30T08:45:02.867Z,10.75
2023-04-30T08:46:02.929Z,10.72
2023-04-30T08:47:02.897Z,10.64
2023-04-30T08:48:02.963Z,10.68
2023-04-30T08:49:02.936Z,10.57
2023-04-30T08:50:02.961Z,10.57
2023-04-30T08:51:02.958Z,10.48
2023-04-30T08:52:02.988Z,10.46
2023-04-30T08:53:02.993Z,10.48
2023-04-30T08:54:03.013Z,10.39
2023-04-30T08:55:03.015Z,10.41
2023-04-30T08:56:03.031Z,10.45
2023-04-30T08:57:03.048Z,10.41
2023-04-30T08:58:03.075Z,10.42
2023-04-30T08:59:03.082Z,10.41
2023-04-30T09:00:03.096Z,10.43
2023-04-30T09:01:03.202Z,10.43
2023-04-30T09:02:03.244Z,10.43
2023-04-30T09:03:03.208Z,10.48
2023-04-30T09:04:03.338Z,10.48
2023-04-30T09:05:03.175Z,10.42
2023-04-30T09:06:03.204Z,10.41
2023-04-30T09:07:04.498Z,10.48
2023-04-30T09:08:04.432Z,10.53
2023-04-30T09:09:03.229Z,10.55
2023-04-30T09:10:03.242Z,10.49
2023-04-30T09:11:03.257Z,10.53
2023-04-30T09:12:03.273Z,10.51
2023-04-30T09:13:03.295Z,10.57
2023-04-30T09:14:03.325Z,10.57
2023-04-30T09:15:03.320Z,10.59
2023-04-30T09:16:03.365Z,10.59
2023-04-30T09:17:03.350Z,10.53
2023-04-30T09:18:03.385Z,10.58
2023-04-30T09:19:03.388Z,10.62
2023-04-30T09:20:03.390Z,10.57
2023-04-30T09:21:03.408Z,10.61
2023-04-30T09:22:03.432Z,10.57
2023-04-30T09:23:03.461Z,10.69
2023-04-30T09:24:03.467Z,10.69
2023-04-30T09:25:03.492Z,10.80
2023-04-30T09:26:03.487Z,10.75
2023-04-30T09:27:03.513Z,10.77
2023-04-30T09:28:03.515Z,10.75
2023-04-30T09:29:03.785Z,10.83
2023-04-30T09:30:03.563Z,10.80
2023-04-30T09:31:03.606Z,10.82
2023-04-30T09:32:03.790Z,10.87
2023-04-30T09:33:03.637Z,10.89
2023-04-30T09:34:03.610Z,10.97
2023-04-30T09:35:03.617Z,11.04
2023-04-30T09:36:03.653Z,11.05
2023-04-30T09:37:03.654Z,11.12
2023-04-30T09:38:03.667Z,11.10
2023-04-30T09:39:03.688Z,11.13
2023-04-30T09:40:03.696Z,11.12
2023-04-30T09:41:03.713Z,11.19
2023-04-30T09:42:03.728Z,11.20
2023-04-30T09:43:03.743Z,11.22
2023-04-30T09:44:03.779Z,11.20
2023-04-30T09:45:03.774Z,11.25
2023-04-30T09:46:03.791Z,11.23
2023-04-30T09:47:03.905Z,11.31
2023-04-30T09:48:16.460Z,11.27
2023-04-30T09:49:03.840Z,11.30
2023-04-30T09:50:03.867Z,11.35
2023-04-30T09:51:03.879Z,11.40
2023-04-30T09:52:03.881Z,11.31
2023-04-30T09:53:03.903Z,11.30
2023-04-30T09:54:03.921Z,11.23
2023-04-30T09:55:03.930Z,11.37
2023-04-30T09:56:03.952Z,11.33
2023-04-30T09:57:03.962Z,11.44
2023-04-30T09:58:03.977Z,11.45
2023-04-30T09:59:03.994Z,11.55
2023-04-30T10:00:04.013Z,11.58
2023-04-30T10:01:04.057Z,11.70
2023-04-30T10:02:04.050Z,11.78
2023-04-30T10:03:04.090Z,11.81
2023-04-30T10:04:04.176Z,11.95
2023-04-30T10:05:04.105Z,12.11
2023-04-30T10:06:04.142Z,12.23
2023-04-30T10:07:04.156Z,12.40
2023-04-30T10:08:04.154Z,12.58
2023-04-30T10:09:04.175Z,12.68
2023-04-30T10:10:04.226Z,12.86
2023-04-30T10:11:04.219Z,13.02
2023-04-30T10:12:04.237Z,13.20
2023-04-30T10:13:05.875Z,13.26
2023-04-30T10:14:04.268Z,13.42
2023-04-30T10:15:04.292Z,13.61
2023-04-30T10:16:04.362Z,13.68
2023-04-30T10:17:04.335Z,13.87
2023-04-30T10:18:04.376Z,13.87
2023-04-30T10:19:04.376Z,13.86
2023-04-30T10:20:04.408Z,14.05
2023-04-30T10:21:04.424Z,14.20
2023-04-30T10:22:04.444Z,14.31
2023-04-30T10:23:04.463Z,14.58
2023-04-30T10:24:04.487Z,14.79
2023-04-30T10:25:04.531Z,15.05
2023-04-30T10:26:04.540Z,15.07
2023-04-30T10:27:04.556Z,15.44
2023-04-30T10:28:05.082Z,15.67
2023-04-30T10:29:04.603Z,15.66
2023-04-30T10:30:04.645Z,15.83
2023-04-30T10:31:04.654Z,16.18
2023-04-30T10:32:04.696Z,16.39
2023-04-30T10:33:04.741Z,16.49
2023-04-30T10:34:04.736Z,17.05
2023-04-30T10:35:04.759Z,17.05
2023-04-30T10:36:04.783Z,17.07
2023-04-30T10:37:04.812Z,17.07
2023-04-30T10:38:04.837Z,17.05
2023-04-30T10:39:04.873Z,17.28
2023-04-30T10:40:04.903Z,17.27
2023-04-30T10:41:04.918Z,17.50
2023-04-30T10:42:04.954Z,17.66
2023-04-30T10:43:04.973Z,17.52
2023-04-30T10:44:05.011Z,17.65
2023-04-30T10:45:05.026Z,17.69
2023-04-30T10:46:05.131Z,18.06
2023-04-30T10:47:05.084Z,18.21
2023-04-30T10:48:05.161Z,18.37
2023-04-30T10:49:05.143Z,18.53
2023-04-30T10:50:05.180Z,18.73
2023-04-30T10:51:05.191Z,18.92
2023-04-30T10:52:05.265Z,19.19
2023-04-30T10:53:05.250Z,19.29
2023-04-30T10:54:05.276Z,19.53
2023-04-30T10:55:05.303Z,19.55
2023-04-30T10:56:05.343Z,19.81
2023-04-30T10:57:05.368Z,19.87
2023-04-30T10:58:05.414Z,19.90
2023-04-30T10:59:05.419Z,20.07
2023-04-30T11:00:05.462Z,20.03
2023-04-30T11:01:05.616Z,20.17
2023-04-30T11:02:05.505Z,20.11
2023-04-30T11:03:05.594Z,20.03
2023-04-30T11:04:05.571Z,20.39
2023-04-30T11:05:05.716Z,20.40
2023-04-30T11:06:05.657Z,20.56
2023-04-30T11:07:05.652Z,20.77
2023-04-30T11:08:05.680Z,20.75
2023-04-30T11:09:05.719Z,21.07
2023-04-30T11:10:05.739Z,21.05
2023-04-30T11:11:05.773Z,21.07
2023-04-30T11:12:05.803Z,21.04
2023-04-30T11:13:05.833Z,21.14
2023-04-30T11:14:05.857Z,21.23
2023-04-30T11:15:05.885Z,21.43
2023-04-30T11:16:06.007Z,21.51
2023-04-30T11:17:05.958Z,21.44
2023-04-30T11:18:06.035Z,21.56
2023-04-30T11:19:06.004Z,21.53
2023-04-30T11:20:06.035Z,21.68
2023-04-30T11:21:06.064Z,21.81
2023-04-30T11:22:06.100Z,21.92
2023-04-30T11:23:06.124Z,21.96
2023-04-30T11:24:06.156Z,22.06
2023-04-30T11:25:06.202Z,21.92
2023-04-30T11:26:06.235Z,21.84
2023-04-30T11:27:06.289Z,22.00
2023-04-30T11:28:06.278Z,22.12
2023-04-30T11:29:06.360Z,22.04
2023-04-30T11:30:06.335Z,22.10
2023-04-30T11:31:06.421Z,22.25
2023-04-30T11:32:06.394Z,22.36
2023-04-30T11:33:06.485Z,22.56
2023-04-30T11:34:06.454Z,22.61
2023-04-30T11:35:06.534Z,22.41
2023-04-30T11:36:06.511Z,22.43
2023-04-30T11:37:06.548Z,22.26
2023-04-30T11:38:06.574Z,22.26
2023-04-30T11:39:06.602Z,22.31
2023-04-30T11:40:06.634Z,22.47
2023-04-30T11:41:06.670Z,22.52
2023-04-30T11:42:06.702Z,22.53
2023-04-30T11:43:06.721Z,22.62
2023-04-30T11:44:06.756Z,22.53
2023-04-30T11:45:06.809Z,22.58
2023-04-30T11:46:06.908Z,22.56
2023-04-30T11:47:06.886Z,22.58
2023-04-30T11:48:06.966Z,22.37
2023-04-30T11:49:06.907Z,22.51
2023-04-30T11:50:06.943Z,22.41
2023-04-30T11:51:06.973Z,22.21
2023-04-30T11:52:07.000Z,22.31
2023-04-30T11:53:07.030Z,22.03
2023-04-30T11:54:07.061Z,21.97
2023-04-30T11:55:07.090Z,21.74
2023-04-30T11:56:07.136Z,21.66
2023-04-30T11:57:07.150Z,21.63
2023-04-30T11:58:07.183Z,21.59
2023-04-30T11:59:07.205Z,21.68
2023-04-30T12:00:07.235Z,21.75
2023-04-30T12:01:07.263Z,21.83
2023-04-30T12:02:07.374Z,22.03
2023-04-30T12:03:07.381Z,22.06
2023-04-30T12:04:07.426Z,21.91
2023-04-30T12:05:07.383Z,21.89
2023-04-30T12:06:07.561Z,21.63
2023-04-30T12:07:07.440Z,21.60
2023-04-30T12:08:07.470Z,21.51
2023-04-30T12:09:07.496Z,21.53
2023-04-30T12:10:07.538Z,21.54
2023-04-30T12:11:07.556Z,21.54
2023-04-30T12:12:07.590Z,21.50
2023-04-30T12:13:07.614Z,21.72
2023-04-30T12:14:07.747Z,21.92
2023-04-30T12:15:07.676Z,21.96
2023-04-30T12:16:07.742Z,22.21
2023-04-30T12:17:07.737Z,22.25
2023-04-30T12:18:07.771Z,22.36
2023-04-30T12:19:07.790Z,22.30
2023-04-30T12:20:07.843Z,22.44
2023-04-30T12:21:07.856Z,22.46
2023-04-30T12:22:07.879Z,22.59
2023-04-30T12:23:07.909Z,22.59
2023-04-30T12:24:07.938Z,22.76
2023-04-30T12:25:07.966Z,22.76
2023-04-30T12:26:07.998Z,22.78
2023-04-30T12:27:08.027Z,22.76
2023-04-30T12:28:08.052Z,22.78
2023-04-30T12:29:08.087Z,22.93
2023-04-30T12:30:08.181Z,22.92
2023-04-30T12:31:08.143Z,22.89
2023-04-30T12:32:08.230Z,22.81
2023-04-30T12:33:08.268Z,22.91
2023-04-30T12:34:08.234Z,22.89
2023-04-30T12:35:08.267Z,22.98
2023-04-30T12:36:08.295Z,22.96
2023-04-30T12:37:08.322Z,22.99
2023-04-30T12:38:08.425Z,23.14
2023-04-30T12:39:08.386Z,23.13
2023-04-30T12:40:08.415Z,23.20
2023-04-30T12:41:08.445Z,23.40
2023-04-30T12:42:08.472Z,23.40
2023-04-30T12:43:08.504Z,23.44
2023-04-30T12:44:08.530Z,23.36
2023-04-30T12:45:08.565Z,23.23
2023-04-30T12:46:08.634Z,23.16
2023-04-30T12:47:08.619Z,23.02
2023-04-30T12:48:08.732Z,22.93
2023-04-30T12:49:08.681Z,23.01
2023-04-30T12:50:08.716Z,22.96
2023-04-30T12:51:08.741Z,22.91
2023-04-30T12:52:08.773Z,22.74
2023-04-30T12:53:08.814Z,22.70
2023-04-30T12:54:08.827Z,22.65
2023-04-30T12:55:08.865Z,22.77
2023-04-30T12:56:08.895Z,22.78
2023-04-30T12:57:08.921Z,22.89
2023-04-30T12:58:08.947Z,23.01
2023-04-30T12:59:08.982Z,22.99
2023-04-30T13:00:09.008Z,23.01
2023-04-30T13:01:09.091Z,23.10
2023-04-30T13:02:09.077Z,23.02
2023-04-30T13:03:09.209Z,22.98
2023-04-30T13:04:09.164Z,22.78
2023-04-30T13:05:11.498Z,22.59
2023-04-30T13:06:09.200Z,22.62